sensor_id;sensor_type;location;lat;lon;timestamp;pressure;altitude;pressure_sealevel;temperature;humidity
79150;BME280;68563;45.644;13.782;2023-05-10T00:01:53;100754.44;;;15.62;45.95
79150;BME280;68563;45.644;13.782;2023-05-10T00:04:19;100751.31;;;15.51;45.94
79150;BME280;68563;45.644;13.782;2023-05-10T00:06:45;100763.22;;;15.60;46.08
79150;BME280;68563;45.644;13.782;2023-05-10T00:09:10;100756.97;;;15.66;45.77
79150;BME280;68563;45.644;13.782;2023-05-10T00:11:35;100750.72;;;15.70;45.60
79150;BME280;68563;45.644;13.782;2023-05-10T00:14:01;100736.69;;;15.74;45.76
79150;BME280;68563;45.644;13.782;2023-05-10T00:16:26;100741.56;;;15.58;46.11
79150;BME280;68563;45.644;13.782;2023-05-10T00:18:52;100739.03;;;15.55;45.69
79150;BME280;68563;45.644;13.782;2023-05-10T00:21:17;100743.44;;;15.53;46.02
79150;BME280;68563;45.644;13.782;2023-05-10T00:23:43;100718.97;;;15.57;45.83
79150;BME280;68563;45.644;13.782;2023-05-10T00:26:08;100703.19;;;15.60;45.83
79150;BME280;68563;45.644;13.782;2023-05-10T00:28:33;100739.78;;;15.58;46.17
79150;BME280;68563;45.644;13.782;2023-05-10T00:30:59;100716.38;;;15.55;45.81
79150;BME280;68563;45.644;13.782;2023-05-10T00:33:24;100716.28;;;15.58;45.63
79150;BME280;68563;45.644;13.782;2023-05-10T00:35:49;100731.00;;;15.61;45.66
79150;BME280;68563;45.644;13.782;2023-05-10T00:38:15;100704.91;;;15.61;45.61
79150;BME280;68563;45.644;13.782;2023-05-10T00:40:40;100711.06;;;15.58;45.83
79150;BME280;68563;45.644;13.782;2023-05-10T00:43:06;100700.69;;;15.57;45.86
79150;BME280;68563;45.644;13.782;2023-05-10T00:45:32;100731.28;;;15.52;46.29
79150;BME280;68563;45.644;13.782;2023-05-10T00:48:00;100686.13;;;15.50;46.39
79150;BME280;68563;45.644;13.782;2023-05-10T00:50:26;100706.69;;;15.59;46.05
79150;BME280;68563;45.644;13.782;2023-05-10T00:52:51;100681.69;;;15.52;46.07
79150;BME280;68563;45.644;13.782;2023-05-10T00:55:17;100722.69;;;15.50;46.56
79150;BME280;68563;45.644;13.782;2023-05-10T00:57:43;100683.41;;;15.53;46.30
79150;BME280;68563;45.644;13.782;2023-05-10T01:00:09;100679.22;;;15.48;46.30
79150;BME280;68563;45.644;13.782;2023-05-10T01:02:36;100673.09;;;15.50;46.28
79150;BME280;68563;45.644;13.782;2023-05-10T01:05:02;100677.75;;;15.40;46.73
79150;BME280;68563;45.644;13.782;2023-05-10T01:07:28;100694.13;;;15.45;46.82
79150;BME280;68563;45.644;13.782;2023-05-10T01:09:54;100668.22;;;15.39;46.69
79150;BME280;68563;45.644;13.782;2023-05-10T01:12:20;100677.59;;;15.44;46.85
79150;BME280;68563;45.644;13.782;2023-05-10T01:14:46;100690.75;;;15.41;46.96
79150;BME280;68563;45.644;13.782;2023-05-10T01:17:12;100680.19;;;15.44;46.70
79150;BME280;68563;45.644;13.782;2023-05-10T01:19:38;100685.59;;;15.40;46.99
79150;BME280;68563;45.644;13.782;2023-05-10T01:31:07;100664.59;;;15.43;46.89
79150;BME280;68563;45.644;13.782;2023-05-10T01:33:55;100693.31;;;15.43;47.21
79150;BME280;68563;45.644;13.782;2023-05-10T01:39:25;100674.88;;;15.47;46.84
79150;BME280;68563;45.644;13.782;2023-05-10T01:47:46;100664.59;;;15.43;46.95
79150;BME280;68563;45.644;13.782;2023-05-10T01:50:18;100647.22;;;15.42;47.29
79150;BME280;68563;45.644;13.782;2023-05-10T01:52:51;100646.59;;;15.35;47.09
79150;BME280;68563;45.644;13.782;2023-05-10T01:55:21;100668.97;;;15.42;47.40
79150;BME280;68563;45.644;13.782;2023-05-10T01:57:51;100658.56;;;15.41;47.16
79150;BME280;68563;45.644;13.782;2023-05-10T02:00:18;100630.78;;;15.40;47.24
79150;BME280;68563;45.644;13.782;2023-05-10T02:02:46;100633.28;;;15.43;47.09
79150;BME280;68563;45.644;13.782;2023-05-10T02:05:13;100663.34;;;15.55;47.19
79150;BME280;68563;45.644;13.782;2023-05-10T02:07:40;100650.44;;;15.50;47.09
79150;BME280;68563;45.644;13.782;2023-05-10T02:10:08;100641.13;;;15.43;47.18
79150;BME280;68563;45.644;13.782;2023-05-10T02:12:41;100654.00;;;15.47;47.01
79150;BME280;68563;45.644;13.782;2023-05-10T02:15:07;100650.59;;;15.45;47.70
79150;BME280;68563;45.644;13.782;2023-05-10T02:17:35;100645.34;;;15.47;47.42
79150;BME280;68563;45.644;13.782;2023-05-10T02:20:03;100636.84;;;15.40;47.21
79150;BME280;68563;45.644;13.782;2023-05-10T02:22:30;100648.78;;;15.47;47.35
79150;BME280;68563;45.644;13.782;2023-05-10T02:24:58;100641.91;;;15.45;47.84
79150;BME280;68563;45.644;13.782;2023-05-10T02:27:25;100642.88;;;15.42;47.69
79150;BME280;68563;45.644;13.782;2023-05-10T02:29:53;100643.63;;;15.46;47.51
79150;BME280;68563;45.644;13.782;2023-05-10T02:32:21;100630.63;;;15.44;47.29
79150;BME280;68563;45.644;13.782;2023-05-10T02:34:46;100610.69;;;15.42;47.73
79150;BME280;68563;45.644;13.782;2023-05-10T02:37:18;100637.31;;;15.52;47.16
79150;BME280;68563;45.644;13.782;2023-05-10T02:39:46;100627.91;;;15.47;47.84
79150;BME280;68563;45.644;13.782;2023-05-10T02:42:16;100612.41;;;15.43;47.96
79150;BME280;68563;45.644;13.782;2023-05-10T02:44:42;100624.63;;;15.42;48.16
79150;BME280;68563;45.644;13.782;2023-05-10T02:47:08;100600.31;;;15.40;48.36
79150;BME280;68563;45.644;13.782;2023-05-10T02:49:34;100621.25;;;15.39;48.41
79150;BME280;68563;45.644;13.782;2023-05-10T02:52:01;100621.19;;;15.40;48.15
79150;BME280;68563;45.644;13.782;2023-05-10T02:54:32;100610.00;;;15.37;48.22
79150;BME280;68563;45.644;13.782;2023-05-10T02:57:00;100639.47;;;15.40;47.82
79150;BME280;68563;45.644;13.782;2023-05-10T02:59:26;100615.00;;;15.43;48.21
79150;BME280;68563;45.644;13.782;2023-05-10T03:01:52;100618.50;;;15.43;47.91
79150;BME280;68563;45.644;13.782;2023-05-10T03:04:17;100620.00;;;15.51;48.00
79150;BME280;68563;45.644;13.782;2023-05-10T03:06:43;100603.53;;;15.48;48.10
79150;BME280;68563;45.644;13.782;2023-05-10T03:09:09;100611.22;;;15.52;48.05
79150;BME280;68563;45.644;13.782;2023-05-10T03:16:56;100609.84;;;15.41;48.65
79150;BME280;68563;45.644;13.782;2023-05-10T03:19:29;100602.78;;;15.45;48.52
79150;BME280;68563;45.644;13.782;2023-05-10T03:21:59;100598.53;;;15.41;48.70
79150;BME280;68563;45.644;13.782;2023-05-10T03:24:27;100613.16;;;15.46;48.85
79150;BME280;68563;45.644;13.782;2023-05-10T03:26:55;100626.25;;;15.45;48.43
79150;BME280;68563;45.644;13.782;2023-05-10T03:29:26;100611.56;;;15.42;48.93
79150;BME280;68563;45.644;13.782;2023-05-10T03:31:51;100593.31;;;15.41;49.01
79150;BME280;68563;45.644;13.782;2023-05-10T03:34:23;100592.56;;;15.37;48.80
79150;BME280;68563;45.644;13.782;2023-05-10T03:36:49;100593.38;;;15.39;48.75
79150;BME280;68563;45.644;13.782;2023-05-10T03:39:14;100604.44;;;15.47;48.90
79150;BME280;68563;45.644;13.782;2023-05-10T03:41:39;100600.09;;;15.46;48.97
79150;BME280;68563;45.644;13.782;2023-05-10T03:44:05;100601.00;;;15.45;48.70
79150;BME280;68563;45.644;13.782;2023-05-10T03:46:30;100602.84;;;15.43;49.12
79150;BME280;68563;45.644;13.782;2023-05-10T03:48:56;100601.00;;;15.45;49.05
79150;BME280;68563;45.644;13.782;2023-05-10T03:51:21;100604.50;;;15.44;49.20
79150;BME280;68563;45.644;13.782;2023-05-10T03:53:47;100590.03;;;15.36;49.19
79150;BME280;68563;45.644;13.782;2023-05-10T03:56:12;100595.78;;;15.45;49.50
79150;BME280;68563;45.644;13.782;2023-05-10T03:58:38;100600.25;;;15.42;49.33
79150;BME280;68563;45.644;13.782;2023-05-10T04:01:03;100611.56;;;15.42;49.24
79150;BME280;68563;45.644;13.782;2023-05-10T04:03:28;100606.44;;;15.39;49.52
79150;BME280;68563;45.644;13.782;2023-05-10T04:06:01;100609.94;;;15.38;49.46
79150;BME280;68563;45.644;13.782;2023-05-10T04:08:26;100646.44;;;15.40;49.41
79150;BME280;68563;45.644;13.782;2023-05-10T04:10:52;100614.22;;;15.41;49.38
79150;BME280;68563;45.644;13.782;2023-05-10T04:13:17;100618.59;;;15.40;49.22
79150;BME280;68563;45.644;13.782;2023-05-10T04:15:43;100612.53;;;15.40;49.25
79150;BME280;68563;45.644;13.782;2023-05-10T04:18:08;100592.69;;;15.34;49.37
79150;BME280;68563;45.644;13.782;2023-05-10T04:20:34;100612.63;;;15.37;49.36
79150;BME280;68563;45.644;13.782;2023-05-10T04:22:59;100607.56;;;15.32;49.72
79150;BME280;68563;45.644;13.782;2023-05-10T04:25:24;100599.63;;;15.35;49.76
79150;BME280;68563;45.644;13.782;2023-05-10T04:27:50;100608.44;;;15.31;49.78
79150;BME280;68563;45.644;13.782;2023-05-10T04:30:16;100612.88;;;15.29;49.27
79150;BME280;68563;45.644;13.782;2023-05-10T04:32:42;100620.44;;;15.37;49.63
79150;BME280;68563;45.644;13.782;2023-05-10T04:35:07;100606.66;;;15.33;49.48
79150;BME280;68563;45.644;13.782;2023-05-10T04:37:35;100635.50;;;15.28;50.05
79150;BME280;68563;45.644;13.782;2023-05-10T04:40:01;100614.75;;;15.25;50.03
79150;BME280;68563;45.644;13.782;2023-05-10T04:42:26;100632.13;;;15.25;50.18
79150;BME280;68563;45.644;13.782;2023-05-10T04:44:51;100617.38;;;15.24;50.76
79150;BME280;68563;45.644;13.782;2023-05-10T04:47:17;100606.09;;;15.23;50.62
79150;BME280;68563;45.644;13.782;2023-05-10T04:49:42;100624.50;;;15.19;50.88
79150;BME280;68563;45.644;13.782;2023-05-10T04:52:08;100625.41;;;15.18;50.58
79150;BME280;68563;45.644;13.782;2023-05-10T04:54:33;100607.72;;;15.00;50.87
79150;BME280;68563;45.644;13.782;2023-05-10T04:56:59;100632.59;;;15.11;51.33
79150;BME280;68563;45.644;13.782;2023-05-10T04:59:25;100626.50;;;15.10;51.49
79150;BME280;68563;45.644;13.782;2023-05-10T05:01:50;100644.84;;;15.09;51.16
79150;BME280;68563;45.644;13.782;2023-05-10T05:04:15;100638.72;;;15.10;51.20
79150;BME280;68563;45.644;13.782;2023-05-10T05:06:41;100627.38;;;15.11;51.19
79150;BME280;68563;45.644;13.782;2023-05-10T05:09:06;100617.59;;;14.91;51.77
79150;BME280;68563;45.644;13.782;2023-05-10T05:11:32;100630.22;;;15.03;52.41
79150;BME280;68563;45.644;13.782;2023-05-10T05:13:57;100645.88;;;15.03;52.03
79150;BME280;68563;45.644;13.782;2023-05-10T05:16:24;100596.16;;;14.81;52.88
79150;BME280;68563;45.644;13.782;2023-05-10T05:18:49;100626.41;;;14.87;52.51
79150;BME280;68563;45.644;13.782;2023-05-10T05:21:19;100644.88;;;15.07;52.07
79150;BME280;68563;45.644;13.782;2023-05-10T05:23:45;100639.75;;;15.04;52.94
79150;BME280;68563;45.644;13.782;2023-05-10T05:26:10;100645.03;;;15.03;52.80
79150;BME280;68563;45.644;13.782;2023-05-10T05:28:36;100629.44;;;15.01;53.05
79150;BME280;68563;45.644;13.782;2023-05-10T05:31:06;100612.13;;;14.98;52.78
79150;BME280;68563;45.644;13.782;2023-05-10T05:33:33;100630.22;;;15.03;53.11
79150;BME280;68563;45.644;13.782;2023-05-10T05:36:00;100659.72;;;15.05;53.45
79150;BME280;68563;45.644;13.782;2023-05-10T05:38:26;100637.53;;;14.92;53.35
79150;BME280;68563;45.644;13.782;2023-05-10T05:40:52;100642.75;;;14.92;53.41
79150;BME280;68563;45.644;13.782;2023-05-10T05:43:17;100647.78;;;14.98;53.81
79150;BME280;68563;45.644;13.782;2023-05-10T05:45:42;100640.06;;;14.95;54.10
79150;BME280;68563;45.644;13.782;2023-05-10T05:48:08;100651.16;;;15.02;53.83
79150;BME280;68563;45.644;13.782;2023-05-10T05:50:33;100658.22;;;14.98;53.41
79150;BME280;68563;45.644;13.782;2023-05-10T05:52:58;100651.47;;;14.91;54.25
79150;BME280;68563;45.644;13.782;2023-05-10T05:55:24;100666.94;;;14.97;53.73
79150;BME280;68563;45.644;13.782;2023-05-10T05:57:50;100643.72;;;14.89;54.29
79150;BME280;68563;45.644;13.782;2023-05-10T06:00:16;100650.63;;;14.90;54.00
79150;BME280;68563;45.644;13.782;2023-05-10T06:02:42;100639.44;;;14.87;54.16
79150;BME280;68563;45.644;13.782;2023-05-10T06:05:08;100658.34;;;14.93;54.66
79150;BME280;68563;45.644;13.782;2023-05-10T06:07:33;100668.69;;;14.96;54.63
79150;BME280;68563;45.644;13.782;2023-05-10T06:09:59;100659.91;;;14.99;54.56
79150;BME280;68563;45.644;13.782;2023-05-10T06:12:24;100655.66;;;14.96;55.09
79150;BME280;68563;45.644;13.782;2023-05-10T06:14:50;100658.13;;;15.01;54.78
79150;BME280;68563;45.644;13.782;2023-05-10T06:17:15;100658.97;;;15.02;55.20
79150;BME280;68563;45.644;13.782;2023-05-10T06:19:41;100625.03;;;14.75;54.88
79150;BME280;68563;45.644;13.782;2023-05-10T06:22:06;100652.19;;;14.96;55.14
79150;BME280;68563;45.644;13.782;2023-05-10T06:24:32;100670.16;;;15.05;55.09
79150;BME280;68563;45.644;13.782;2023-05-10T06:26:57;100665.81;;;15.06;54.57
79150;BME280;68563;45.644;13.782;2023-05-10T06:29:25;100675.28;;;15.08;54.55
79150;BME280;68563;45.644;13.782;2023-05-10T06:31:50;100657.16;;;15.04;54.65
79150;BME280;68563;45.644;13.782;2023-05-10T06:34:16;100657.22;;;15.02;54.46
79150;BME280;68563;45.644;13.782;2023-05-10T06:36:41;100668.38;;;15.07;54.53
79150;BME280;68563;45.644;13.782;2023-05-10T06:39:07;100674.34;;;15.11;54.48
79150;BME280;68563;45.644;13.782;2023-05-10T06:41:32;100667.28;;;15.14;55.21
79150;BME280;68563;45.644;13.782;2023-05-10T06:43:58;100672.63;;;15.10;55.20
79150;BME280;68563;45.644;13.782;2023-05-10T06:46:23;100677.91;;;15.07;55.84
79150;BME280;68563;45.644;13.782;2023-05-10T06:48:50;100687.31;;;15.12;55.54
79150;BME280;68563;45.644;13.782;2023-05-10T06:51:16;100665.84;;;15.04;55.56
79150;BME280;68563;45.644;13.782;2023-05-10T06:53:44;100676.88;;;15.12;56.05
79150;BME280;68563;45.644;13.782;2023-05-10T06:56:10;100684.84;;;15.08;56.19
79150;BME280;68563;45.644;13.782;2023-05-10T06:58:35;100684.91;;;15.06;56.07
79150;BME280;68563;45.644;13.782;2023-05-10T07:01:04;100648.25;;;14.82;57.19
79150;BME280;68563;45.644;13.782;2023-05-10T07:03:31;100626.63;;;14.79;57.09
79150;BME280;68563;45.644;13.782;2023-05-10T07:06:03;100665.19;;;14.97;57.18
79150;BME280;68563;45.644;13.782;2023-05-10T07:08:31;100688.47;;;15.04;56.74
79150;BME280;68563;45.644;13.782;2023-05-10T07:11:04;100687.41;;;15.09;56.74
79150;BME280;68563;45.644;13.782;2023-05-10T07:13:32;100637.47;;;14.95;56.83
79150;BME280;68563;45.644;13.782;2023-05-10T07:15:58;100663.34;;;15.01;57.70
79150;BME280;68563;45.644;13.782;2023-05-10T07:18:24;100670.91;;;15.09;57.06
79150;BME280;68563;45.644;13.782;2023-05-10T07:20:49;100660.75;;;14.99;56.67
79150;BME280;68563;45.644;13.782;2023-05-10T07:23:15;100679.63;;;15.08;57.27
79150;BME280;68563;45.644;13.782;2023-05-10T07:25:47;100642.00;;;14.88;57.84
79150;BME280;68563;45.644;13.782;2023-05-10T07:28:13;100655.53;;;14.99;58.48
79150;BME280;68563;45.644;13.782;2023-05-10T07:30:39;100682.19;;;15.09;58.11
79150;BME280;68563;45.644;13.782;2023-05-10T07:33:04;100662.34;;;15.05;59.09
79150;BME280;68563;45.644;13.782;2023-05-10T07:35:30;100672.63;;;15.10;58.39
79150;BME280;68563;45.644;13.782;2023-05-10T07:37:55;100688.16;;;15.13;58.86
79150;BME280;68563;45.644;13.782;2023-05-10T07:40:21;100671.03;;;15.06;59.61
79150;BME280;68563;45.644;13.782;2023-05-10T07:42:46;100634.19;;;14.88;59.28
79150;BME280;68563;45.644;13.782;2023-05-10T07:45:12;100663.16;;;15.07;59.06
79150;BME280;68563;45.644;13.782;2023-05-10T07:47:37;100669.19;;;15.08;59.67
79150;BME280;68563;45.644;13.782;2023-05-10T07:50:03;100652.91;;;15.01;59.24
79150;BME280;68563;45.644;13.782;2023-05-10T07:52:29;100664.00;;;15.08;59.34
79150;BME280;68563;45.644;13.782;2023-05-10T07:54:54;100650.44;;;14.96;59.64
79150;BME280;68563;45.644;13.782;2023-05-10T07:57:22;100654.72;;;14.99;60.08
79150;BME280;68563;45.644;13.782;2023-05-10T07:59:47;100651.41;;;14.94;59.92
79150;BME280;68563;45.644;13.782;2023-05-10T08:02:13;100667.47;;;15.08;59.69
79150;BME280;68563;45.644;13.782;2023-05-10T08:04:38;100670.91;;;15.09;59.80
79150;BME280;68563;45.644;13.782;2023-05-10T08:07:04;100679.88;;;15.00;60.00
79150;BME280;68563;45.644;13.782;2023-05-10T08:09:29;100671.88;;;15.06;59.71
79150;BME280;68563;45.644;13.782;2023-05-10T08:11:55;100656.41;;;15.00;59.76
79150;BME280;68563;45.644;13.782;2023-05-10T08:14:20;100652.28;;;14.93;59.89
79150;BME280;68563;45.644;13.782;2023-05-10T08:16:46;100662.78;;;14.91;59.94
79150;BME280;68563;45.644;13.782;2023-05-10T08:19:11;100663.34;;;15.01;60.26
79150;BME280;68563;45.644;13.782;2023-05-10T08:21:37;100671.66;;;15.12;60.08
79150;BME280;68563;45.644;13.782;2023-05-10T08:24:02;100669.13;;;15.11;59.98
79150;BME280;68563;45.644;13.782;2023-05-10T08:26:28;100687.25;;;15.14;60.13
79150;BME280;68563;45.644;13.782;2023-05-10T08:28:53;100675.28;;;15.08;59.83
79150;BME280;68563;45.644;13.782;2023-05-10T08:31:18;100682.94;;;15.13;60.58
79150;BME280;68563;45.644;13.782;2023-05-10T08:33:44;100695.22;;;15.09;61.13
79150;BME280;68563;45.644;13.782;2023-05-10T08:36:09;100679.50;;;15.12;60.32
79150;BME280;68563;45.644;13.782;2023-05-10T08:38:35;100689.13;;;15.10;61.00
79150;BME280;68563;45.644;13.782;2023-05-10T08:41:02;100700.44;;;15.09;60.67
79150;BME280;68563;45.644;13.782;2023-05-10T08:43:28;100683.00;;;15.11;62.07
79150;BME280;68563;45.644;13.782;2023-05-10T08:46:00;100701.41;;;15.07;62.48
79150;BME280;68563;45.644;13.782;2023-05-10T08:48:26;100691.91;;;15.04;63.90
79150;BME280;68563;45.644;13.782;2023-05-10T08:50:54;100690.47;;;14.95;63.18
79150;BME280;68563;45.644;13.782;2023-05-10T08:53:24;100680.88;;;14.96;63.77
79150;BME280;68563;45.644;13.782;2023-05-10T08:55:52;100705.16;;;14.98;64.37
79150;BME280;68563;45.644;13.782;2023-05-10T08:58:19;100713.78;;;15.00;64.32
79150;BME280;68563;45.644;13.782;2023-05-10T09:00:45;100714.69;;;14.99;64.00
79150;BME280;68563;45.644;13.782;2023-05-10T09:03:10;100700.22;;;14.89;65.26
79150;BME280;68563;45.644;13.782;2023-05-10T09:05:36;100710.56;;;14.92;65.08
79150;BME280;68563;45.644;13.782;2023-05-10T09:08:02;100705.19;;;14.96;65.29
79150;BME280;68563;45.644;13.782;2023-05-10T09:10:28;100710.75;;;14.86;64.82
79150;BME280;68563;45.644;13.782;2023-05-10T09:12:56;100720.91;;;14.95;64.87
79150;BME280;68563;45.644;13.782;2023-05-10T09:15:22;100700.50;;;14.79;65.29
79150;BME280;68563;45.644;13.782;2023-05-10T09:17:49;100724.59;;;14.88;64.57
79150;BME280;68563;45.644;13.782;2023-05-10T09:20:15;100715.06;;;14.87;64.46
79150;BME280;68563;45.644;13.782;2023-05-10T09:22:42;100712.47;;;14.87;64.14
79150;BME280;68563;45.644;13.782;2023-05-10T09:25:09;100737.63;;;14.88;64.64
79150;BME280;68563;45.644;13.782;2023-05-10T09:27:35;100718.47;;;14.89;64.66
79150;BME280;68563;45.644;13.782;2023-05-10T09:30:02;100709.13;;;14.81;64.08
79150;BME280;68563;45.644;13.782;2023-05-10T09:32:38;100729.13;;;14.81;64.08
79150;BME280;68563;45.644;13.782;2023-05-10T09:35:12;100716.84;;;14.84;63.89
79150;BME280;68563;45.644;13.782;2023-05-10T09:37:46;100718.75;;;14.79;64.45
79150;BME280;68563;45.644;13.782;2023-05-10T09:40:20;100714.31;;;14.83;64.18
79150;BME280;68563;45.644;13.782;2023-05-10T09:43:00;100713.44;;;14.82;64.66
79150;BME280;68563;45.644;13.782;2023-05-10T09:45:27;100714.31;;;14.81;64.52
79150;BME280;68563;45.644;13.782;2023-05-10T09:47:53;100706.56;;;14.80;64.11
79150;BME280;68563;45.644;13.782;2023-05-10T09:50:20;100706.56;;;14.80;64.31
79150;BME280;68563;45.644;13.782;2023-05-10T09:52:46;100704.81;;;14.80;64.24
79150;BME280;68563;45.644;13.782;2023-05-10T09:55:12;100695.19;;;14.82;64.16
79150;BME280;68563;45.644;13.782;2023-05-10T09:57:38;100702.22;;;14.80;64.47
79150;BME280;68563;45.644;13.782;2023-05-10T10:00:05;100702.88;;;14.87;64.29
79150;BME280;68563;45.644;13.782;2023-05-10T10:02:31;100701.16;;;14.86;64.50
79150;BME280;68563;45.644;13.782;2023-05-10T10:04:57;100703.88;;;14.83;64.66
79150;BME280;68563;45.644;13.782;2023-05-10T10:07:23;100706.63;;;14.78;64.86
79150;BME280;68563;45.644;13.782;2023-05-10T10:09:53;100697.00;;;14.80;65.63
79150;BME280;68563;45.644;13.782;2023-05-10T10:12:19;100711.44;;;14.91;65.30
79150;BME280;68563;45.644;13.782;2023-05-10T10:14:46;100716.03;;;14.82;66.29
79150;BME280;68563;45.644;13.782;2023-05-10T10:17:15;100715.13;;;14.83;65.53
79150;BME280;68563;45.644;13.782;2023-05-10T10:19:41;100690.06;;;14.79;64.64
79150;BME280;68563;45.644;13.782;2023-05-10T10:22:06;100709.16;;;14.80;64.44
79150;BME280;68563;45.644;13.782;2023-05-10T10:24:32;100698.78;;;14.78;64.59
79150;BME280;68563;45.644;13.782;2023-05-10T10:27:04;100689.38;;;14.74;65.06
79150;BME280;68563;45.644;13.782;2023-05-10T10:29:39;100696.38;;;14.72;64.72
79150;BME280;68563;45.644;13.782;2023-05-10T10:34:44;100693.56;;;14.78;64.51
79150;BME280;68563;45.644;13.782;2023-05-10T10:37:09;100682.25;;;14.79;64.60
79150;BME280;68563;45.644;13.782;2023-05-10T10:39:35;100693.56;;;14.78;64.42
79150;BME280;68563;45.644;13.782;2023-05-10T10:42:01;100687.66;;;14.73;65.12
79150;BME280;68563;45.644;13.782;2023-05-10T10:52:27;100686.25;;;14.91;64.66
79150;BME280;68563;45.644;13.782;2023-05-10T10:55:10;100691.78;;;14.80;64.64
79150;BME280;68563;45.644;13.782;2023-05-10T10:57:44;100703.88;;;14.83;64.56
79150;BME280;68563;45.644;13.782;2023-05-10T11:02:50;100684.72;;;14.84;64.65
79150;BME280;68563;45.644;13.782;2023-05-10T11:05:48;100693.19;;;14.91;64.91
79150;BME280;68563;45.644;13.782;2023-05-10T11:08:39;100669.03;;;14.86;65.21
79150;BME280;68563;45.644;13.782;2023-05-10T11:11:06;100690.66;;;14.89;65.42
79150;BME280;68563;45.644;13.782;2023-05-10T11:13:42;100662.91;;;14.87;65.76
79150;BME280;68563;45.644;13.782;2023-05-10T11:18:36;100666.41;;;14.86;65.80
79150;BME280;68563;45.644;13.782;2023-05-10T11:21:03;100669.09;;;14.82;65.53
79150;BME280;68563;45.644;13.782;2023-05-10T11:26:13;100676.16;;;14.80;65.48
79150;BME280;68563;45.644;13.782;2023-05-10T11:28:43;100667.38;;;14.83;65.75
79150;BME280;68563;45.644;13.782;2023-05-10T11:31:08;100661.16;;;14.87;65.95
79150;BME280;68563;45.644;13.782;2023-05-10T11:33:50;100659.44;;;14.86;65.16
79150;BME280;68563;45.644;13.782;2023-05-10T11:36:26;100665.41;;;14.90;65.17
79150;BME280;68563;45.644;13.782;2023-05-10T11:38:52;100672.25;;;14.94;64.81
79150;BME280;68563;45.644;13.782;2023-05-10T11:41:19;100655.88;;;14.89;64.71
79150;BME280;68563;45.644;13.782;2023-05-10T11:43:47;100659.09;;;14.97;64.74
79150;BME280;68563;45.644;13.782;2023-05-10T11:46:15;100656.41;;;15.00;64.71
79150;BME280;68563;45.644;13.782;2023-05-10T11:48:42;100644.34;;;14.96;64.87
79150;BME280;68563;45.644;13.782;2023-05-10T11:51:08;100645.31;;;14.93;65.22
79150;BME280;68563;45.644;13.782;2023-05-10T11:53:34;100635.06;;;14.87;64.39
79150;BME280;68563;45.644;13.782;2023-05-10T11:56:07;100642.50;;;14.99;64.25
79150;BME280;68563;45.644;13.782;2023-05-10T11:58:34;100629.63;;;14.95;64.91
79150;BME280;68563;45.644;13.782;2023-05-10T12:01:00;100631.03;;;15.05;65.16
79150;BME280;68563;45.644;13.782;2023-05-10T12:03:27;100635.34;;;15.06;64.91
79150;BME280;68563;45.644;13.782;2023-05-10T12:05:53;100626.63;;;15.07;64.26
79150;BME280;68563;45.644;13.782;2023-05-10T12:08:22;100617.19;;;15.03;63.70
79150;BME280;68563;45.644;13.782;2023-05-10T12:10:48;100648.19;;;15.12;64.17
79150;BME280;68563;45.644;13.782;2023-05-10T12:13:14;100615.25;;;15.10;64.71
79150;BME280;68563;45.644;13.782;2023-05-10T12:15:40;100609.16;;;15.09;64.86
79150;BME280;68563;45.644;13.782;2023-05-10T12:18:09;100620.34;;;15.13;64.85
79150;BME280;68563;45.644;13.782;2023-05-10T12:20:35;100621.09;;;15.16;64.74
79150;BME280;68563;45.644;13.782;2023-05-10T12:23:01;100616.63;;;15.20;64.61
79150;BME280;68563;45.644;13.782;2023-05-10T12:25:35;100619.28;;;15.19;63.71
79150;BME280;68563;45.644;13.782;2023-05-10T12:28:08;100612.38;;;15.18;63.36
79150;BME280;68563;45.644;13.782;2023-05-10T12:30:35;100642.47;;;15.28;64.28
79150;BME280;68563;45.644;13.782;2023-05-10T12:33:09;100618.09;;;15.29;63.33
79150;BME280;68563;45.644;13.782;2023-05-10T12:35:49;100624.97;;;15.31;63.47
79150;BME280;68563;45.644;13.782;2023-05-10T12:38:29;100629.28;;;15.32;63.83
79150;BME280;68563;45.644;13.782;2023-05-10T12:41:00;100611.88;;;15.33;64.24
79150;BME280;68563;45.644;13.782;2023-05-10T12:43:26;100589.91;;;15.13;63.98
79150;BME280;68563;45.644;13.782;2023-05-10T12:45:52;100609.47;;;15.27;63.97
79150;BME280;68563;45.644;13.782;2023-05-10T12:48:17;100607.69;;;15.27;63.85
79150;BME280;68563;45.644;13.782;2023-05-10T12:50:43;100606.94;;;15.24;63.32
79150;BME280;68563;45.644;13.782;2023-05-10T12:53:08;100586.41;;;15.14;63.61
79150;BME280;68563;45.644;13.782;2023-05-10T12:55:34;100575.22;;;15.11;63.42
79150;BME280;68563;45.644;13.782;2023-05-10T12:57:59;100608.56;;;15.28;64.02
79150;BME280;68563;45.644;13.782;2023-05-10T13:00:25;100608.41;;;15.32;64.32
79150;BME280;68563;45.644;13.782;2023-05-10T13:02:50;100604.25;;;15.27;64.17
79150;BME280;68563;45.644;13.782;2023-05-10T13:05:16;100624.00;;;15.34;64.76
79150;BME280;68563;45.644;13.782;2023-05-10T13:07:41;100616.13;;;15.36;64.10
79150;BME280;68563;45.644;13.782;2023-05-10T13:10:09;100629.28;;;15.32;63.82
79150;BME280;68563;45.644;13.782;2023-05-10T13:12:34;100600.47;;;15.36;63.78
79150;BME280;68563;45.644;13.782;2023-05-10T13:15:00;100606.56;;;15.36;64.36
79150;BME280;68563;45.644;13.782;2023-05-10T13:17:26;100607.56;;;15.32;63.76
79150;BME280;68563;45.644;13.782;2023-05-10T13:19:51;100619.59;;;15.36;63.91
79150;BME280;68563;45.644;13.782;2023-05-10T13:22:17;100587.47;;;15.34;64.22